Time;durP1;ratioP1;P1;durP2;ratioP2;P2;SDS_P1;SDS_P2;PMS_P1;PMS_P2;Temp;Humidity;BMP_temperature;BMP_pressure;BME280_temperature;BME280_humidity;BME280_pressure;Samples;Min_cycle;Max_cycle;Signal;HPM_P1;HPM_P2
2022/11/05 00:11:16;;;;;;;6.97;6.47;;;;;;;8.12;100.00;96396.59;4936517;29;20182;-74
2022/11/05 00:16:44;;;;;;;7.60;6.80;;;;;;;8.24;100.00;96400.06;4937844;29;20281;-78
2022/11/05 00:19:09;;;;;;;7.20;6.60;;;;;;;8.17;100.00;96402.75;4936166;29;20212;-73
2022/11/05 00:27:06;;;;;;;6.83;6.23;;;;;;;8.18;100.00;96416.59;4943484;28;20189;-73
2022/11/05 00:29:32;;;;;;;6.43;5.90;;;;;;;8.12;100.00;96415.66;4955374;29;20193;-73
2022/11/05 00:31:57;;;;;;;6.57;6.10;;;;;;;8.21;100.00;96410.91;4953970;29;20189;-73
2022/11/05 00:34:22;;;;;;;6.47;6.07;;;;;;;8.10;100.00;96420.28;4936404;29;20244;-73
2022/11/05 00:36:48;;;;;;;5.93;5.63;;;;;;;8.12;100.00;96417.47;4936326;29;20222;-73
2022/11/05 00:39:13;;;;;;;7.47;6.80;;;;;;;8.14;100.00;96421.44;4936114;29;20539;-73
2022/11/05 00:41:38;;;;;;;8.67;8.17;;;;;;;8.15;100.00;96424.84;4934961;29;20606;-74
2022/11/05 00:46:48;;;;;;;8.40;7.90;;;;;;;8.19;100.00;96437.25;4935867;29;20237;-75
2022/11/05 00:49:28;;;;;;;6.83;6.43;;;;;;;8.25;100.00;96431.13;4936065;29;20198;-72
2022/11/05 00:52:54;;;;;;;7.67;7.17;;;;;;;8.20;100.00;96435.44;4935800;29;20178;-73
2022/11/05 00:54:39;;;;;;;10.00;9.33;;;;;;;8.33;100.00;96433.50;4934557;29;20273;-73
2022/11/05 00:57:04;;;;;;;11.57;10.87;;;;;;;8.24;100.00;96441.81;4934893;29;20280;-73
2022/11/05 00:59:29;;;;;;;9.27;8.53;;;;;;;8.29;100.00;96449.78;4935767;29;20217;-73
2022/11/05 01:01:55;;;;;;;9.17;8.57;;;;;;;8.21;100.00;96447.47;4935495;29;20190;-73
2022/11/05 01:04:20;;;;;;;7.40;6.90;;;;;;;8.19;100.00;96452.13;4935493;29;20635;-73
2022/11/05 01:06:45;;;;;;;7.63;7.13;;;;;;;8.09;100.00;96452.63;4935290;29;20213;-73
2022/11/05 01:09:11;;;;;;;11.50;10.87;;;;;;;8.13;100.00;96456.41;4935744;29;20197;-73
2022/11/05 01:11:36;;;;;;;9.97;9.47;;;;;;;8.13;100.00;96463.44;4935278;29;20560;-74
2022/11/05 01:14:06;;;;;;;8.40;7.90;;;;;;;8.16;100.00;96461.19;4935543;29;20194;-73
2022/11/05 01:16:31;;;;;;;9.33;8.77;;;;;;;8.07;100.00;96452.06;4935676;29;20197;-73
2022/11/05 01:18:57;;;;;;;8.43;7.83;;;;;;;8.19;100.00;96458.13;4933599;29;20539;-73
2022/11/05 01:21:22;;;;;;;7.67;7.27;;;;;;;8.19;100.00;96457.34;4935137;29;20639;-73
2022/11/05 01:23:48;;;;;;;8.00;7.40;;;;;;;8.12;100.00;96461.84;4935408;29;20345;-73
2022/11/05 01:26:14;;;;;;;7.07;6.60;;;;;;;8.07;100.00;96470.34;4935333;29;20182;-73
2022/11/05 01:28:39;;;;;;;7.63;7.13;;;;;;;8.06;100.00;96468.72;4935732;29;20194;-73
2022/11/05 01:31:04;;;;;;;7.37;6.83;;;;;;;8.09;100.00;96468.28;4935383;29;20190;-72
2022/11/05 01:33:30;;;;;;;7.27;6.87;;;;;;;8.05;100.00;96479.38;4935147;29;20557;-73
2022/11/05 01:35:56;;;;;;;7.00;6.60;;;;;;;8.06;100.00;96480.97;4935287;29;20229;-73
2022/11/05 01:38:21;;;;;;;8.00;7.53;;;;;;;8.07;100.00;96478.16;4935338;29;20250;-73
2022/11/05 01:40:46;;;;;;;6.63;6.17;;;;;;;7.99;100.00;96478.44;4937259;29;20249;-73
2022/11/05 01:43:17;;;;;;;7.03;6.53;;;;;;;8.01;100.00;96481.63;4922100;29;20193;-73
2022/11/05 01:45:45;;;;;;;6.53;6.23;;;;;;;7.97;100.00;96483.06;4939045;29;20204;-73
2022/11/05 01:48:34;;;;;;;6.33;6.03;;;;;;;8.01;100.00;96483.44;4939166;29;20643;-72
2022/11/05 01:51:15;;;;;;;6.50;6.00;;;;;;;8.08;100.00;96479.72;4938739;29;20218;-73
2022/11/05 01:53:49;;;;;;;5.83;5.40;;;;;;;8.05;100.00;96487.22;4938823;29;20174;-72
2022/11/05 01:56:17;;;;;;;5.80;5.33;;;;;;;7.99;100.00;96486.28;4939358;29;20182;-72
2022/11/05 01:58:51;;;;;;;5.67;5.37;;;;;;;8.06;100.00;96487.00;4939186;29;20214;-73
2022/11/05 02:01:17;;;;;;;5.70;5.40;;;;;;;8.02;100.00;96488.47;4938941;29;20183;-73
2022/11/05 02:03:43;;;;;;;6.00;5.70;;;;;;;8.10;100.00;96488.16;4938897;29;20193;-73
2022/11/05 02:06:10;;;;;;;6.43;6.13;;;;;;;8.10;100.00;96488.16;4939255;29;20538;-73
2022/11/05 02:09:02;;;;;;;5.70;5.37;;;;;;;8.08;100.00;96484.97;4938776;29;20194;-73
2022/11/05 02:11:27;;;;;;;5.60;5.20;;;;;;;8.00;100.00;96487.06;4938723;29;20178;-72
2022/11/05 02:13:53;;;;;;;5.40;5.10;;;;;;;8.08;100.00;96487.56;4921638;29;20209;-72
2022/11/05 02:16:43;;;;;;;5.53;5.23;;;;;;;8.12;100.00;96488.75;4938885;29;20190;-73
2022/11/05 02:19:33;;;;;;;5.23;4.83;;;;;;;8.11;100.00;96492.38;4938590;29;20257;-73
2022/11/05 02:22:04;;;;;;;5.10;4.50;;;;;;;8.01;100.00;96491.28;4938677;29;20218;-73
2022/11/05 02:24:41;;;;;;;6.07;4.70;;;;;;;8.07;100.00;96493.81;4937989;29;20193;-73
2022/11/05 02:27:09;;;;;;;4.87;4.53;;;;;;;7.98;100.00;96492.50;4938701;29;20185;-73
2022/11/05 02:30:01;;;;;;;4.03;3.77;;;;;;;8.03;100.00;96494.44;4939233;29;20190;-73
2022/11/05 02:32:53;;;;;;;4.13;3.93;;;;;;;8.05;100.00;96497.66;4939133;29;20639;-72
2022/11/05 02:35:32;;;;;;;10.50;4.70;;;;;;;8.07;100.00;96503.47;4939713;29;20186;-72
2022/11/05 02:38:37;;;;;;;5.93;4.37;;;;;;;8.12;100.00;96496.56;4938303;29;20316;-71
2022/11/05 02:41:08;;;;;;;4.53;4.23;;;;;;;8.10;100.00;96498.59;4904281;29;20201;-76
2022/11/05 02:44:15;;;;;;;4.80;4.33;;;;;;;8.05;100.00;96501.06;4938462;29;20190;-72
2022/11/05 02:47:05;;;;;;;4.63;4.40;;;;;;;8.08;100.00;96505.84;4893522;29;20622;-72
2022/11/05 02:49:41;;;;;;;4.57;4.30;;;;;;;8.10;100.00;96501.22;4936967;29;20238;-72
2022/11/05 02:52:19;;;;;;;4.53;4.20;;;;;;;8.08;100.00;96511.06;4937763;29;20261;-72
2022/11/05 02:55:06;;;;;;;4.50;4.30;;;;;;;8.14;100.00;96504.16;4920924;29;20181;-72
2022/11/05 02:57:34;;;;;;;4.63;4.33;;;;;;;8.03;100.00;96505.69;4938277;29;20178;-71
2022/11/05 03:00:03;;;;;;;4.33;4.13;;;;;;;8.10;100.00;96510.84;4937883;29;20205;-72
2022/11/05 03:02:29;;;;;;;5.03;4.73;;;;;;;8.12;100.00;96508.81;4937714;29;20197;-72
2022/11/05 03:04:54;;;;;;;4.47;4.27;;;;;;;8.15;100.00;96511.00;4938054;29;20186;-71
2022/11/05 03:07:48;;;;;;;4.77;4.57;;;;;;;8.20;100.00;96509.31;4938009;29;20285;-72
2022/11/05 03:10:38;;;;;;;5.20;5.00;;;;;;;8.16;100.00;96505.56;4937529;29;20186;-72
2022/11/05 03:13:13;;;;;;;4.90;4.37;;;;;;;8.21;100.00;96515.34;4937240;29;20325;-72
2022/11/05 03:15:49;;;;;;;4.70;4.40;;;;;;;8.23;100.00;96511.50;4938090;29;20605;-71
2022/11/05 03:18:33;;;;;;;4.43;4.13;;;;;;;8.10;100.00;96516.06;4936697;29;20273;-71
2022/11/05 03:21:16;;;;;;;4.97;4.67;;;;;;;8.09;100.00;96519.69;4937974;29;20182;-71
2022/11/05 03:23:54;;;;;;;5.13;4.60;;;;;;;8.13;100.00;96532.09;4920763;29;20237;-71
2022/11/05 03:26:30;;;;;;;4.83;4.53;;;;;;;8.17;100.00;96530.66;4937575;29;20631;-71
2022/11/05 03:29:01;;;;;;;5.63;5.07;;;;;;;8.10;100.00;96526.50;4919724;29;20186;-71
2022/11/05 03:31:29;;;;;;;5.13;4.83;;;;;;;8.01;100.00;96535.66;4937570;29;20245;-71
2022/11/05 03:33:57;;;;;;;7.27;6.83;;;;;;;8.17;100.00;96532.47;4937437;29;20190;-71
2022/11/05 03:36:28;;;;;;;9.40;8.90;;;;;;;8.06;100.00;96535.78;4942259;29;20245;-71
2022/11/05 03:38:57;;;;;;;8.57;8.07;;;;;;;8.04;100.00;96532.59;4939112;29;20197;-71
2022/11/05 03:41:24;;;;;;;8.07;7.60;;;;;;;7.95;100.00;96539.91;4956266;29;20213;-71
2022/11/05 03:43:55;;;;;;;8.07;7.57;;;;;;;8.05;100.00;96542.03;4942852;29;20186;-72
2022/11/05 03:46:25;;;;;;;8.13;7.33;;;;;;;8.06;100.00;96541.00;4937326;29;20193;-72
2022/11/05 03:48:54;;;;;;;7.37;6.97;;;;;;;8.03;100.00;96538.81;4937408;29;20193;-72
2022/11/05 03:51:42;;;;;;;7.53;7.13;;;;;;;7.87;100.00;96551.41;4937283;29;20182;-72
2022/11/05 03:54:08;;;;;;;7.47;7.07;;;;;;;8.01;100.00;96553.91;4951879;29;20190;-72
2022/11/05 03:56:49;;;;;;;7.07;6.67;;;;;;;7.95;100.00;96558.19;4952743;29;20181;-72
2022/11/05 03:59:15;;;;;;;7.87;7.37;;;;;;;8.01;100.00;96559.13;4937328;29;20198;-72
2022/11/05 04:01:41;;;;;;;6.83;6.43;;;;;;;8.00;100.00;96568.78;4936496;29;20193;-72
2022/11/05 04:04:07;;;;;;;7.70;7.10;;;;;;;8.06;100.00;96573.13;4937197;29;20647;-71
2022/11/05 04:14:45;;;;;;;5.87;5.47;;;;;;;7.83;100.00;96573.75;4936827;29;20627;-72
2022/11/05 04:17:10;;;;;;;6.47;5.97;;;;;;;7.84;100.00;96577.94;4936404;29;20186;-72
2022/11/05 04:25:16;;;;;;;6.50;6.10;;;;;;;7.84;100.00;96577.16;4955666;29;20192;-71
2022/11/05 04:27:42;;;;;;;7.80;6.97;;;;;;;7.80;100.00;96589.81;4944564;29;20273;-71
2022/11/05 04:30:17;;;;;;;6.47;5.97;;;;;;;7.79;100.00;96588.22;4936588;29;20297;-72
2022/11/05 04:33:20;;;;;;;5.77;5.37;;;;;;;7.82;100.00;96595.63;4936534;29;20233;-72
2022/11/05 04:35:47;;;;;;;6.43;5.83;;;;;;;7.76;100.00;96601.69;4947613;29;20512;-72
2022/11/05 04:38:18;;;;;;;6.57;6.07;;;;;;;7.77;100.00;96600.69;4940793;29;20204;-72
2022/11/05 04:40:44;;;;;;;6.57;5.97;;;;;;;7.72;100.00;96602.34;4936322;29;20292;-72
2022/11/05 04:43:15;;;;;;;7.20;6.60;;;;;;;7.71;100.00;96598.13;4936584;29;20193;-71
2022/11/05 04:45:41;;;;;;;8.73;7.93;;;;;;;7.72;100.00;96597.13;4936450;29;20197;-71
2022/11/05 04:48:07;;;;;;;8.40;7.57;;;;;;;7.68;100.00;96607.19;4950240;29;20220;-71
2022/11/05 04:50:33;;;;;;;9.27;8.47;;;;;;;7.74;100.00;96613.38;4939062;29;20201;-71
2022/11/05 04:52:58;;;;;;;10.73;9.97;;;;;;;7.68;100.00;96601.97;4935645;29;20190;-71
2022/11/05 04:55:25;;;;;;;9.60;8.80;;;;;;;7.67;100.00;96613.41;4936425;29;20234;-71
2022/11/05 04:57:51;;;;;;;11.60;10.57;;;;;;;7.75;100.00;96614.94;4950068;29;20220;-70
2022/11/05 05:00:18;;;;;;;11.93;10.93;;;;;;;7.69;100.00;96618.41;4954905;29;20204;-70
2022/11/05 05:02:44;;;;;;;14.20;13.20;;;;;;;7.68;100.00;96615.00;4949456;29;20202;-71
2022/11/05 05:05:09;;;;;;;13.50;12.70;;;;;;;7.75;100.00;96617.53;4936065;29;20277;-71
2022/11/05 05:07:35;;;;;;;12.77;12.00;;;;;;;7.61;100.00;96618.66;4947792;29;20204;-70
2022/11/05 05:10:02;;;;;;;13.47;12.43;;;;;;;7.67;100.00;96620.44;4954563;29;20646;-71
2022/11/05 05:12:27;;;;;;;11.90;11.17;;;;;;;7.54;100.00;96623.94;4954202;29;20182;-71
2022/11/05 05:14:53;;;;;;;11.40;10.80;;;;;;;7.44;100.00;96626.19;4948153;29;20732;-71
2022/11/05 05:17:18;;;;;;;11.00;10.23;;;;;;;7.56;100.00;96629.75;4945231;29;20224;-71
2022/11/05 05:22:28;;;;;;;11.37;10.67;;;;;;;7.56;100.00;96631.53;4951554;29;20185;-71
2022/11/05 05:24:55;;;;;;;10.13;9.53;;;;;;;7.49;100.00;96634.19;4935939;29;20189;-71
2022/11/05 05:27:21;;;;;;;8.77;8.17;;;;;;;7.47;100.00;96636.19;4946348;29;20185;-71
2022/11/05 05:29:47;;;;;;;9.03;8.33;;;;;;;7.56;100.00;96640.16;4954971;29;20209;-71
2022/11/05 05:32:12;;;;;;;9.40;8.80;;;;;;;7.58;100.00;96645.97;4954515;29;20531;-71
2022/11/05 05:34:37;;;;;;;9.47;8.87;;;;;;;7.57;100.00;96644.38;4954425;29;20181;-71
2022/11/05 05:37:03;;;;;;;9.30;8.50;;;;;;;7.58;100.00;96642.56;4946799;29;20364;-71
2022/11/05 05:39:28;;;;;;;8.53;7.93;;;;;;;7.56;100.00;96640.16;4946992;29;20295;-72
2022/11/05 05:41:53;;;;;;;10.90;8.77;;;;;;;7.56;100.00;96647.19;4940335;29;20195;-71
2022/11/05 05:44:19;;;;;;;10.00;9.20;;;;;;;7.68;100.00;96650.72;4935777;29;20189;-72
2022/11/05 05:46:44;;;;;;;10.10;9.30;;;;;;;7.59;100.00;96651.97;4940584;29;20181;-72
2022/11/05 05:49:10;;;;;;;13.40;12.20;;;;;;;7.62;100.00;96657.59;4954922;29;20193;-72
2022/11/05 05:51:35;;;;;;;12.43;11.23;;;;;;;7.59;100.00;96658.00;4950754;29;20650;-72
2022/11/05 05:54:01;;;;;;;13.87;12.57;;;;;;;7.68;100.00;96659.34;4938656;29;20539;-72
2022/11/05 05:56:26;;;;;;;14.40;12.90;;;;;;;7.67;100.00;96664.78;4947985;29;20198;-72
2022/11/05 05:58:52;;;;;;;14.90;13.30;;;;;;;7.64;100.00;96665.19;4935336;29;20213;-72
2022/11/05 06:01:18;;;;;;;16.47;14.77;;;;;;;7.55;100.00;96659.44;4946562;29;20258;-71
2022/11/05 06:03:43;;;;;;;20.17;14.30;;;;;;;7.66;100.00;96666.59;4935356;29;20183;-73
2022/11/05 06:06:14;;;;;;;19.43;15.37;;;;;;;7.68;100.00;96669.78;4943174;29;20181;-72
2022/11/05 06:08:40;;;;;;;21.20;15.20;;;;;;;7.65;100.00;96666.78;4942321;29;20632;-72
2022/11/05 06:11:06;;;;;;;19.10;15.73;;;;;;;7.60;100.00;96672.63;4918204;29;20614;-72
2022/11/05 06:13:32;;;;;;;19.13;15.90;;;;;;;7.49;100.00;96687.16;4954532;29;20244;-72
2022/11/05 06:16:08;;;;;;;23.17;16.67;;;;;;;7.49;100.00;96684.53;4947633;29;20659;-72
2022/11/05 06:18:34;;;;;;;21.57;17.20;;;;;;;7.60;100.00;96690.91;4946474;29;20197;-74
2022/11/05 06:21:05;;;;;;;20.50;17.30;;;;;;;7.58;100.00;96687.69;4954333;29;20186;-72
2022/11/05 06:23:31;;;;;;;22.53;18.67;;;;;;;7.50;100.00;96691.34;4954091;29;20213;-72
2022/11/05 06:26:05;;;;;;;22.93;19.47;;;;;;;7.56;100.00;96699.34;4950102;28;20603;-72
2022/11/05 06:28:32;;;;;;;26.67;18.57;;;;;;;7.59;100.00;96701.53;4938447;29;20237;-72
2022/11/05 06:30:58;;;;;;;26.23;19.60;;;;;;;7.43;100.00;96702.81;4938437;29;20190;-72
2022/11/05 06:33:24;;;;;;;27.60;20.57;;;;;;;7.53;100.00;96711.78;4939276;29;20190;-72
2022/11/05 06:35:49;;;;;;;26.93;21.17;;;;;;;7.54;100.00;96723.03;4957063;29;20244;-72
2022/11/05 06:38:15;;;;;;;26.80;20.90;;;;;;;7.54;100.00;96723.03;4949967;29;20186;-71
2022/11/05 06:40:40;;;;;;;29.83;21.83;;;;;;;7.47;100.00;96723.06;4938262;29;20574;-71
2022/11/05 06:43:06;;;;;;;27.30;20.63;;;;;;;7.57;100.00;96725.22;4937886;29;20264;-72
2022/11/05 06:45:31;;;;;;;27.07;20.77;;;;;;;7.52;100.00;96725.84;4940266;29;20197;-71
2022/11/05 06:47:57;;;;;;;27.90;21.10;;;;;;;7.56;100.00;96730.66;4953428;29;20193;-72
2022/11/05 06:50:24;;;;;;;34.17;22.87;;;;;;;7.49;100.00;96738.50;4938168;29;20256;-72
2022/11/05 06:53:07;;;;;;;36.93;23.33;;;;;;;7.61;100.00;96743.84;4920893;29;20643;-71
2022/11/05 06:55:32;;;;;;;30.50;21.27;;;;;;;7.55;100.00;96744.69;4940323;29;20226;-71
2022/11/05 06:57:58;;;;;;;34.37;23.17;;;;;;;7.57;100.00;96751.31;4952434;29;20670;-72
2022/11/05 07:00:24;;;;;;;36.43;24.27;;;;;;;7.67;100.00;96756.88;4945909;29;20209;-71
2022/11/05 07:02:49;;;;;;;33.50;23.07;;;;;;;7.56;100.00;96748.91;4956911;29;20186;-71
2022/11/05 07:05:15;;;;;;;34.10;22.93;;;;;;;7.50;100.00;96750.53;4940550;29;20245;-71
2022/11/05 07:07:42;;;;;;;33.67;23.00;;;;;;;7.52;100.00;96761.56;4957069;29;20252;-71
2022/11/05 07:10:12;;;;;;;28.87;21.40;;;;;;;7.38;100.00;96768.63;4939246;29;20555;-72
2022/11/05 07:12:37;;;;;;;32.40;22.27;;;;;;;7.49;100.00;96768.00;4956926;29;20221;-71
2022/11/05 07:15:03;;;;;;;33.87;24.10;;;;;;;7.68;100.00;96776.75;4942514;29;20225;-72
2022/11/05 07:17:28;;;;;;;33.23;22.23;;;;;;;7.72;100.00;96777.09;4942461;29;20221;-71
2022/11/05 07:19:54;;;;;;;35.10;22.53;;;;;;;7.64;100.00;96782.56;4956689;29;20674;-72
2022/11/05 07:22:19;;;;;;;34.10;23.33;;;;;;;7.84;100.00;96791.91;4944928;29;20194;-71
2022/11/05 07:24:46;;;;;;;38.37;23.87;;;;;;;7.75;100.00;96797.56;4954569;29;20196;-71
2022/11/05 07:27:12;;;;;;;34.60;23.57;;;;;;;7.88;100.00;96802.72;4958864;29;20192;-72
2022/11/05 07:29:37;;;;;;;35.20;23.90;;;;;;;7.88;100.00;96807.94;4959602;29;20197;-71
2022/11/05 07:32:03;;;;;;;34.13;24.03;;;;;;;8.01;100.00;96812.28;4958615;29;20554;-71
2022/11/05 07:34:28;;;;;;;35.37;24.03;;;;;;;7.79;100.00;96819.63;4957080;29;20189;-71
2022/11/05 07:36:53;;;;;;;35.07;23.63;;;;;;;7.79;100.00;96822.25;4954925;28;20233;-72
2022/11/05 07:39:19;;;;;;;33.47;22.67;;;;;;;7.81;100.00;96810.56;4955505;29;20561;-72
2022/11/05 07:41:44;;;;;;;31.77;23.40;;;;;;;7.89;100.00;96817.38;4948311;29;20218;-72
2022/11/05 07:44:10;;;;;;;31.80;24.07;;;;;;;8.05;100.00;96813.47;4929302;29;20298;-72
2022/11/05 07:46:35;;;;;;;33.50;25.27;;;;;;;7.94;100.00;96826.16;4955073;29;20252;-73
2022/11/05 07:49:01;;;;;;;35.87;24.33;;;;;;;8.05;100.00;96824.72;4954707;29;20212;-71
2022/11/05 07:51:26;;;;;;;33.90;24.37;;;;;;;8.09;100.00;96827.69;4945563;29;20186;-71
2022/11/05 07:53:52;;;;;;;37.67;24.53;;;;;;;8.00;100.00;96834.97;4943701;29;20177;-71
2022/11/05 07:56:17;;;;;;;31.53;23.30;;;;;;;7.88;100.00;96842.66;4955315;29;20618;-70
2022/11/05 07:58:42;;;;;;;32.83;23.33;;;;;;;7.87;100.00;96842.84;4954843;29;20189;-70
2022/11/05 08:01:08;;;;;;;32.03;23.97;;;;;;;7.90;100.00;96835.44;4954736;29;20268;-71
2022/11/05 08:03:34;;;;;;;31.53;24.20;;;;;;;7.98;100.00;96842.19;4932994;29;20220;-71
2022/11/05 08:06:00;;;;;;;32.23;24.17;;;;;;;7.87;100.00;96840.25;4936234;29;20190;-71
2022/11/05 08:08:25;;;;;;;30.23;23.50;;;;;;;7.81;100.00;96846.28;4946698;29;20681;-71
2022/11/05 08:10:50;;;;;;;28.07;22.07;;;;;;;7.68;100.00;96846.38;4954135;29;20198;-72
2022/11/05 08:13:17;;;;;;;27.97;21.20;;;;;;;7.72;100.00;96842.31;4940380;29;20194;-71
2022/11/05 08:15:43;;;;;;;29.03;21.93;;;;;;;7.72;100.00;96845.75;4946039;29;20197;-71
2022/11/05 08:18:14;;;;;;;28.30;22.50;;;;;;;7.81;100.00;96854.94;4924610;29;20273;-70
2022/11/05 08:20:40;;;;;;;29.30;22.87;;;;;;;7.90;100.00;96855.50;4918343;29;20202;-71
2022/11/05 08:23:06;;;;;;;27.97;23.03;;;;;;;7.89;100.00;96854.69;4919443;29;20253;-70
2022/11/05 08:25:32;;;;;;;27.20;21.73;;;;;;;7.88;100.00;96862.72;4954291;29;20194;-70
2022/11/05 08:28:02;;;;;;;29.33;21.50;;;;;;;7.78;100.00;96865.78;4954604;29;20185;-72
2022/11/05 08:30:29;;;;;;;22.43;18.90;;;;;;;7.59;100.00;96866.66;4945084;29;20298;-71
2022/11/05 08:32:59;;;;;;;20.17;17.47;;;;;;;7.48;100.00;96860.25;4917963;29;20194;-70
2022/11/05 08:35:25;;;;;;;21.30;16.50;;;;;;;7.61;100.00;96867.25;4934820;29;20189;-71
2022/11/05 08:37:59;;;;;;;18.77;16.53;;;;;;;7.57;100.00;96868.69;4917501;29;1083744;-70
2022/11/05 08:40:25;;;;;;;22.60;18.37;;;;;;;7.43;100.00;96873.13;4946336;29;20206;-68
2022/11/05 08:42:51;;;;;;;20.47;18.23;;;;;;;7.26;100.00;96882.38;4936310;29;20196;-70
2022/11/05 08:45:16;;;;;;;18.20;16.40;;;;;;;7.34;100.00;96879.56;4934092;29;20181;-70
2022/11/05 08:47:42;;;;;;;16.27;14.83;;;;;;;7.15;100.00;96884.78;4951662;29;20822;-70
2022/11/05 08:50:07;;;;;;;11.60;10.50;;;;;;;7.07;100.00;96886.63;4920824;29;20194;-70
2022/11/05 08:52:33;;;;;;;11.27;10.27;;;;;;;6.94;100.00;96889.22;4915136;29;20190;-70
2022/11/05 08:54:59;;;;;;;11.70;10.53;;;;;;;6.93;100.00;96882.41;4927145;29;20193;-70
2022/11/05 08:57:24;;;;;;;11.50;10.43;;;;;;;6.90;100.00;96890.63;4926645;29;20194;-71
2022/11/05 08:59:50;;;;;;;11.53;10.57;;;;;;;7.07;100.00;96891.03;4929327;29;20205;-73
2022/11/05 09:02:15;;;;;;;10.23;9.37;;;;;;;6.87;100.00;96898.84;4912642;29;20186;-71
2022/11/05 09:04:40;;;;;;;10.10;9.10;;;;;;;6.91;100.00;96894.81;4928801;29;20276;-70
2022/11/05 09:07:06;;;;;;;9.57;8.57;;;;;;;7.07;100.00;96898.84;4955132;29;20542;-73
2022/11/05 09:09:31;;;;;;;10.07;9.27;;;;;;;6.99;100.00;96899.03;4938194;29;20194;-71
2022/11/05 09:11:57;;;;;;;10.67;9.73;;;;;;;7.01;100.00;96897.03;4935812;29;20203;-71
2022/11/05 09:14:25;;;;;;;11.20;10.37;;;;;;;7.03;100.00;96895.00;4941258;29;20178;-70
2022/11/05 09:16:51;;;;;;;12.20;11.20;;;;;;;7.06;100.00;96900.66;4947154;29;20192;-70
2022/11/05 09:19:16;;;;;;;10.17;9.30;;;;;;;7.17;100.00;96896.63;4954334;29;20700;-70
2022/11/05 09:21:41;;;;;;;10.77;9.87;;;;;;;7.17;100.00;96908.84;4940311;29;20228;-71
2022/11/05 09:24:07;;;;;;;10.80;9.77;;;;;;;7.14;100.00;96904.03;4953480;29;20265;-70
2022/11/05 09:26:32;;;;;;;10.20;9.37;;;;;;;7.21;100.00;96913.47;4948097;29;20280;-72
2022/11/05 09:28:57;;;;;;;11.00;10.20;;;;;;;7.19;100.00;96915.44;4935622;29;20186;-71
2022/11/05 09:31:23;;;;;;;10.23;9.43;;;;;;;7.22;100.00;96916.88;4935794;29;20197;-71
2022/11/05 09:33:48;;;;;;;11.27;10.37;;;;;;;7.33;100.00;96919.66;4951327;29;20565;-70
2022/11/05 09:36:14;;;;;;;10.13;9.23;;;;;;;7.37;100.00;96925.25;4951221;29;20295;-70
2022/11/05 09:38:39;;;;;;;12.13;11.03;;;;;;;7.27;100.00;96920.47;4935858;29;20179;-70
2022/11/05 09:41:20;;;;;;;11.20;10.30;;;;;;;7.27;100.00;96924.88;4931678;29;20325;-70
2022/11/05 09:43:58;;;;;;;11.27;10.37;;;;;;;7.42;100.00;96928.88;4936120;29;22228;-71
2022/11/05 09:46:27;;;;;;;12.13;10.93;;;;;;;7.35;100.00;96924.69;4935347;29;20190;-70
2022/11/05 09:49:03;;;;;;;11.87;10.70;;;;;;;7.14;100.00;96922.28;4918380;29;20265;-71
2022/11/05 09:51:29;;;;;;;10.30;9.30;;;;;;;7.25;100.00;96925.06;4945878;29;20189;-71
2022/11/05 09:53:58;;;;;;;10.33;9.43;;;;;;;7.36;100.00;96931.47;4935575;29;20549;-70
2022/11/05 09:56:27;;;;;;;10.90;9.80;;;;;;;7.40;100.00;96930.09;4936883;29;20204;-70
2022/11/05 09:59:03;;;;;;;10.63;9.60;;;;;;;7.29;100.00;96934.13;4953904;29;20205;-70
2022/11/05 10:01:34;;;;;;;11.43;10.33;;;;;;;7.31;100.00;96941.72;4957295;29;20479;-70
2022/11/05 10:04:04;;;;;;;11.10;10.03;;;;;;;7.39;100.00;96936.31;4958823;29;20221;-70
2022/11/05 10:06:30;;;;;;;13.13;11.93;;;;;;;7.62;100.00;96944.50;4957709;29;20260;-73
2022/11/05 10:09:12;;;;;;;15.23;12.17;;;;;;;7.72;100.00;96952.69;4942177;29;20269;-71
2022/11/05 10:11:46;;;;;;;15.33;11.73;;;;;;;7.78;100.00;96958.91;4938875;29;20632;-71
2022/11/05 10:14:15;;;;;;;15.73;14.13;;;;;;;7.45;100.00;96962.38;4938968;29;20257;-70
2022/11/05 10:16:45;;;;;;;15.63;13.40;;;;;;;7.58;100.00;96961.53;4938453;29;20333;-71
2022/11/05 10:19:23;;;;;;;15.23;13.10;;;;;;;7.65;100.00;96962.34;4953936;29;20236;-71
2022/11/05 10:21:49;;;;;;;13.57;12.03;;;;;;;7.76;100.00;96971.34;4944681;29;20186;-75
2022/11/05 10:24:18;;;;;;;14.77;12.83;;;;;;;7.90;100.00;96978.97;4938309;29;20236;-72
2022/11/05 10:26:47;;;;;;;16.70;14.90;;;;;;;7.77;100.00;96968.53;4939009;29;20236;-70
2022/11/05 10:29:19;;;;;;;16.70;14.17;;;;;;;7.79;100.00;96969.16;4954176;29;20278;-70
2022/11/05 10:31:45;;;;;;;17.03;14.73;;;;;;;7.90;100.00;96981.56;4957310;29;20198;-70
2022/11/05 10:34:12;;;;;;;16.70;14.50;;;;;;;7.91;100.00;96975.31;4957329;29;20635;-70
2022/11/05 10:36:38;;;;;;;17.20;13.47;;;;;;;7.72;100.00;96983.19;4954721;29;20229;-71
2022/11/05 10:39:13;;;;;;;16.37;13.40;;;;;;;7.93;100.00;96982.94;4956716;29;20213;-71
2022/11/05 10:41:58;;;;;;;14.90;13.30;;;;;;;8.13;100.00;96978.50;4934144;29;20188;-70
2022/11/05 10:44:29;;;;;;;15.43;12.77;;;;;;;8.38;100.00;96978.63;4938397;29;20188;-72
2022/11/05 10:47:26;;;;;;;14.40;12.43;;;;;;;8.38;100.00;96986.44;4938835;29;20643;-71
2022/11/05 10:49:51;;;;;;;16.63;12.83;;;;;;;8.42;100.00;96992.03;4933523;29;20345;-72
2022/11/05 10:52:36;;;;;;;13.07;11.77;;;;;;;8.36;100.00;96988.44;4948569;29;20276;-72
2022/11/05 10:55:09;;;;;;;16.83;15.17;;;;;;;8.20;100.00;96983.66;4956996;29;20189;-73
2022/11/05 10:57:37;;;;;;;12.47;11.27;;;;;;;8.35;100.00;96989.50;4936641;29;20177;-72
2022/11/05 11:00:17;;;;;;;13.63;12.33;;;;;;;8.34;100.00;96986.06;4937965;29;20210;-72
2022/11/05 11:02:45;;;;;;;16.07;14.57;;;;;;;8.23;100.00;96994.53;4949583;29;20177;-72
2022/11/05 11:05:20;;;;;;;14.40;12.90;;;;;;;8.24;100.00;96997.94;4956950;29;20188;-72
2022/11/05 11:07:53;;;;;;;13.90;12.70;;;;;;;8.03;100.00;96998.97;4910566;29;20185;-70
2022/11/05 11:10:21;;;;;;;15.90;14.53;;;;;;;8.03;100.00;97000.78;4956128;29;20710;-72
2022/11/05 11:12:48;;;;;;;16.10;13.07;;;;;;;8.08;100.00;96998.38;4944484;28;20213;-71
2022/11/05 11:15:26;;;;;;;15.07;13.60;;;;;;;8.03;100.00;96996.38;4944615;29;20598;-71
2022/11/05 11:17:52;;;;;;;14.10;12.70;;;;;;;8.31;100.00;96993.50;4928253;29;20190;-72
2022/11/05 11:20:21;;;;;;;14.97;13.47;;;;;;;8.34;100.00;97003.53;4956439;29;20272;-72
2022/11/05 11:23:08;;;;;;;15.30;13.70;;;;;;;8.38;100.00;96996.09;4956574;29;20185;-72
2022/11/05 11:25:51;;;;;;;16.90;12.63;;;;;;;8.46;100.00;96999.28;4948095;29;20260;-72
2022/11/05 11:28:25;;;;;;;15.30;13.97;;;;;;;8.56;100.00;97009.28;4945205;29;20269;-72
2022/11/05 11:30:59;;;;;;;13.13;11.93;;;;;;;8.41;100.00;97003.53;4956324;29;20198;-70
2022/11/05 11:33:27;;;;;;;13.73;12.43;;;;;;;8.34;100.00;97014.81;4955857;29;20185;-71
2022/11/05 11:35:53;;;;;;;13.27;11.53;;;;;;;8.19;100.00;97002.97;4944664;29;20185;-70
2022/11/05 11:38:18;;;;;;;13.77;12.57;;;;;;;8.47;100.00;97005.31;4937535;29;20206;-71
2022/11/05 11:40:44;;;;;;;13.73;12.03;;;;;;;8.66;100.00;97010.44;4936719;29;20220;-71
2022/11/05 11:43:32;;;;;;;13.37;12.27;;;;;;;8.65;100.00;97010.63;4936776;29;20189;-71
2022/11/05 11:45:58;;;;;;;13.47;12.13;;;;;;;8.79;100.00;97003.53;4936691;29;20558;-71
2022/11/05 11:48:30;;;;;;;13.83;12.60;;;;;;;8.73;100.00;97007.78;4936364;29;20198;-71
2022/11/05 11:50:57;;;;;;;20.67;19.03;;;;;;;8.79;100.00;97012.19;4936791;29;20197;-71
2022/11/05 11:53:27;;;;;;;25.33;23.57;;;;;;;8.87;100.00;97011.13;4936704;29;20185;-71
2022/11/05 11:55:58;;;;;;;18.87;17.47;;;;;;;8.97;100.00;97011.50;4936727;29;20329;-71
2022/11/05 11:58:44;;;;;;;17.17;15.60;;;;;;;9.01;100.00;97015.28;4919892;29;20281;-71
2022/11/05 12:01:45;;;;;;;14.43;13.20;;;;;;;8.49;100.00;97014.53;4936963;29;20547;-71
2022/11/05 12:04:17;;;;;;;14.67;13.47;;;;;;;8.77;100.00;97017.63;4936365;29;20518;-72
2022/11/05 12:07:16;;;;;;;14.07;12.70;;;;;;;8.97;100.00;97008.88;4936666;29;20230;-71
2022/11/05 12:10:10;;;;;;;11.33;10.20;;;;;;;9.06;100.00;97004.97;4937239;29;20202;-71
2022/11/05 12:13:14;;;;;;;12.03;10.07;;;;;;;9.34;100.00;97004.59;4919930;29;20246;-72
2022/11/05 12:15:55;;;;;;;10.90;10.00;;;;;;;9.24;100.00;96997.22;4935282;29;20196;-71